Time;durP1;ratioP1;P1;durP2;ratioP2;P2;SDS_P1;SDS_P2;PMS_P1;PMS_P2;Temp;Humidity;BMP_temperature;BMP_pressure;BME280_temperature;BME280_humidity;BME280_pressure;Samples;Min_cycle;Max_cycle;Signal;HPM_P1;HPM_P2
2022/06/06 00:02:13;;;;;;;3.15;1.70;;;;;;;;;;6330205;27;20052;-71
2022/06/06 00:05:16;;;;;;;5.68;1.75;;;;;;;;;;6326421;28;20273;-72
2022/06/06 00:08:18;;;;;;;5.22;1.75;;;;;;;;;;6323487;27;20376;-71
2022/06/06 00:11:20;;;;;;;4.53;1.80;;;;;;;;;;6323525;28;20067;-71
2022/06/06 00:14:23;;;;;;;6.55;2.28;;;;;;;;;;6324820;28;20051;-71
2022/06/06 00:17:25;;;;;;;5.13;1.75;;;;;;;;;;6322982;27;20102;-71
2022/06/06 00:20:27;;;;;;;6.10;2.03;;;;;;;;;;6325255;28;20132;-71
2022/06/06 00:23:29;;;;;;;3.03;1.75;;;;;;;;;;6323729;27;20055;-71
2022/06/06 00:26:32;;;;;;;4.70;1.42;;;;;;;;;;6322870;28;20221;-71
2022/06/06 00:29:35;;;;;;;3.47;1.70;;;;;;;;;;6320989;27;20440;-70
2022/06/06 00:35:57;;;;;;;2.92;1.55;;;;;;;;;;6327711;28;20185;-71
2022/06/06 00:38:59;;;;;;;6.90;1.80;;;;;;;;;;6326941;28;20043;-72
2022/06/06 00:42:01;;;;;;;2.65;1.75;;;;;;;;;;6321724;28;20131;-71
2022/06/06 00:45:26;;;;;;;4.10;1.50;;;;;;;;;;6322249;28;20086;-71
2022/06/06 00:48:33;;;;;;;3.35;1.40;;;;;;;;;;6327774;27;20048;-71
2022/06/06 00:51:35;;;;;;;2.80;1.30;;;;;;;;;;6323582;27;20052;-72
2022/06/06 00:54:37;;;;;;;4.80;1.63;;;;;;;;;;6324865;28;20523;-71
2022/06/06 00:57:45;;;;;;;4.32;1.73;;;;;;;;;;6325752;27;20051;-71
2022/06/06 01:00:49;;;;;;;3.28;1.40;;;;;;;;;;6323940;27;20044;-71
2022/06/06 01:03:51;;;;;;;2.47;1.42;;;;;;;;;;6324798;27;20044;-71
2022/06/06 01:06:53;;;;;;;6.55;1.35;;;;;;;;;;6324544;27;20044;-72
2022/06/06 01:09:55;;;;;;;3.33;1.33;;;;;;;;;;6326781;27;20343;-71
2022/06/06 01:12:57;;;;;;;2.03;1.10;;;;;;;;;;6325373;28;20269;-71
2022/06/06 01:16:22;;;;;;;3.05;1.42;;;;;;;;;;6321538;27;20378;-72
2022/06/06 01:19:41;;;;;;;4.03;1.40;;;;;;;;;;6324017;27;20072;-73
2022/06/06 01:23:18;;;;;;;3.30;1.55;;;;;;;;;;6321341;28;20097;-71
2022/06/06 01:26:46;;;;;;;2.97;1.25;;;;;;;;;;6325541;27;20048;-71
2022/06/06 01:29:53;;;;;;;3.53;1.38;;;;;;;;;;6325892;27;20077;-72
2022/06/06 01:32:57;;;;;;;5.13;1.92;;;;;;;;;;6321903;28;20043;-71
2022/06/06 01:36:02;;;;;;;4.35;1.27;;;;;;;;;;6325500;27;20362;-71
2022/06/06 01:39:07;;;;;;;2.30;1.33;;;;;;;;;;6322064;28;20063;-71
2022/06/06 01:42:13;;;;;;;5.68;1.83;;;;;;;;;;6326343;27;20052;-71
2022/06/06 01:45:20;;;;;;;1.92;1.23;;;;;;;;;;6325546;28;20048;-72
2022/06/06 01:48:24;;;;;;;3.53;1.38;;;;;;;;;;6296408;28;20086;-72
2022/06/06 01:51:28;;;;;;;2.95;1.38;;;;;;;;;;6299680;28;20052;-71
2022/06/06 01:54:30;;;;;;;2.50;1.23;;;;;;;;;;6305567;28;20101;-71
2022/06/06 01:57:32;;;;;;;2.38;1.00;;;;;;;;;;6297173;28;20060;-70
2022/06/06 02:00:37;;;;;;;3.13;1.13;;;;;;;;;;6294573;28;20055;-71
2022/06/06 02:03:38;;;;;;;3.13;1.15;;;;;;;;;;6301374;28;20056;-73
2022/06/06 02:06:40;;;;;;;2.28;0.98;;;;;;;;;;6302506;28;20114;-72
2022/06/06 02:09:42;;;;;;;1.48;0.77;;;;;;;;;;6303110;28;20044;-71
2022/06/06 02:12:44;;;;;;;3.03;1.00;;;;;;;;;;6296270;28;20044;-72
2022/06/06 02:15:47;;;;;;;2.28;1.00;;;;;;;;;;6299398;28;20263;-71
2022/06/06 02:18:49;;;;;;;2.13;1.00;;;;;;;;;;6296479;28;20296;-71
2022/06/06 02:21:50;;;;;;;4.00;0.98;;;;;;;;;;6303864;28;20052;-71
2022/06/06 02:24:52;;;;;;;1.33;1.10;;;;;;;;;;6300242;28;20045;-71
2022/06/06 02:27:54;;;;;;;2.38;0.93;;;;;;;;;;6303307;27;20044;-73
2022/06/06 02:30:57;;;;;;;2.42;1.15;;;;;;;;;;6296415;28;20107;-71
2022/06/06 02:33:59;;;;;;;5.43;1.20;;;;;;;;;;6306903;28;20056;-72
2022/06/06 02:37:01;;;;;;;2.65;1.10;;;;;;;;;;6326339;28;20044;-71
2022/06/06 02:40:03;;;;;;;4.60;1.05;;;;;;;;;;6324064;28;20048;-73
2022/06/06 02:43:04;;;;;;;3.10;1.38;;;;;;;;;;6325386;28;20047;-71
2022/06/06 02:46:08;;;;;;;1.73;1.00;;;;;;;;;;6323958;28;20055;-71
2022/06/06 02:49:09;;;;;;;2.70;1.10;;;;;;;;;;6322950;28;20056;-72
2022/06/06 02:52:11;;;;;;;3.80;1.05;;;;;;;;;;6317200;28;20110;-73
2022/06/06 02:55:13;;;;;;;1.77;1.10;;;;;;;;;;6325481;28;20235;-71
2022/06/06 02:58:15;;;;;;;5.60;1.60;;;;;;;;;;6320442;28;20052;-71
2022/06/06 03:01:18;;;;;;;2.17;1.00;;;;;;;;;;6322899;28;20048;-71
2022/06/06 03:04:21;;;;;;;3.00;1.27;;;;;;;;;;6323722;27;20239;-72
2022/06/06 03:07:28;;;;;;;3.47;1.10;;;;;;;;;;6325571;28;20119;-71
2022/06/06 03:10:37;;;;;;;2.67;1.40;;;;;;;;;;6318511;28;20370;-72
2022/06/06 03:13:59;;;;;;;2.20;0.93;;;;;;;;;;6323899;28;20055;-72
2022/06/06 03:20:49;;;;;;;2.60;1.30;;;;;;;;;;6326785;28;20081;-72
2022/06/06 03:24:09;;;;;;;2.92;1.10;;;;;;;;;;6324815;28;20082;-71
2022/06/06 03:27:17;;;;;;;4.72;1.30;;;;;;;;;;6325022;28;20122;-72
2022/06/06 03:30:23;;;;;;;2.60;1.35;;;;;;;;;;6321481;28;20043;-72
2022/06/06 03:33:29;;;;;;;5.50;1.20;;;;;;;;;;6324107;28;20055;-72
2022/06/06 03:36:35;;;;;;;4.50;1.10;;;;;;;;;;6329787;28;20047;-73
2022/06/06 03:39:42;;;;;;;3.10;1.38;;;;;;;;;;6326687;28;20052;-72
2022/06/06 03:42:49;;;;;;;2.20;1.10;;;;;;;;;;6328543;28;20097;-72
2022/06/06 03:45:55;;;;;;;2.00;1.10;;;;;;;;;;6329995;28;20075;-72
2022/06/06 03:49:06;;;;;;;3.30;1.10;;;;;;;;;;6325230;28;20093;-72
2022/06/06 03:52:16;;;;;;;3.53;1.15;;;;;;;;;;6328030;28;20141;-72
2022/06/06 03:55:28;;;;;;;1.85;1.00;;;;;;;;;;6332093;28;20225;-72
2022/06/06 03:58:33;;;;;;;2.13;1.10;;;;;;;;;;6327507;28;20115;-72
2022/06/06 04:01:35;;;;;;;2.72;1.20;;;;;;;;;;6327891;28;20377;-72
2022/06/06 04:04:39;;;;;;;3.03;1.27;;;;;;;;;;6329198;28;20050;-72
2022/06/06 04:07:41;;;;;;;4.47;1.30;;;;;;;;;;6330665;28;20044;-71
2022/06/06 04:10:51;;;;;;;3.58;1.33;;;;;;;;;;6324646;28;20078;-72
2022/06/06 04:14:01;;;;;;;2.90;1.35;;;;;;;;;;6330155;28;20075;-72
2022/06/06 04:17:10;;;;;;;3.20;1.60;;;;;;;;;;6326676;28;20043;-72
2022/06/06 04:20:22;;;;;;;4.07;1.67;;;;;;;;;;6326611;28;20101;-72
2022/06/06 04:23:31;;;;;;;2.55;1.77;;;;;;;;;;6327648;28;20106;-72
2022/06/06 04:26:37;;;;;;;5.47;2.40;;;;;;;;;;6329876;28;20337;-71
2022/06/06 04:29:46;;;;;;;4.72;2.58;;;;;;;;;;6326278;27;20385;-70
2022/06/06 04:32:57;;;;;;;5.13;2.63;;;;;;;;;;6330794;28;20055;-72
2022/06/06 04:36:06;;;;;;;6.13;2.95;;;;;;;;;;6327799;28;20089;-74
2022/06/06 04:39:15;;;;;;;5.80;2.28;;;;;;;;;;6324385;28;20115;-75
2022/06/06 04:42:25;;;;;;;7.20;2.25;;;;;;;;;;6326532;27;20047;-76
2022/06/06 04:45:33;;;;;;;4.30;2.45;;;;;;;;;;6324838;28;20048;-74
2022/06/06 04:48:35;;;;;;;8.18;2.20;;;;;;;;;;6323832;28;20048;-74
2022/06/06 04:51:39;;;;;;;3.47;2.30;;;;;;;;;;6322389;28;20043;-76
2022/06/06 04:54:42;;;;;;;2.92;2.10;;;;;;;;;;6322533;28;20352;-76
2022/06/06 04:57:47;;;;;;;2.58;1.45;;;;;;;;;;6332594;28;20052;-76
2022/06/06 05:00:49;;;;;;;3.70;1.73;;;;;;;;;;6330900;28;20040;-74
2022/06/06 05:03:50;;;;;;;4.32;2.78;;;;;;;;;;6328060;28;20213;-74
2022/06/06 05:07:24;;;;;;;4.18;2.35;;;;;;;;;;6329468;28;20048;-74
2022/06/06 05:10:45;;;;;;;;;;;;;;;;;;6323600;28;20036;-74
2022/06/06 05:14:00;;;;;;;6.25;2.58;;;;;;;;;;6326534;28;20127;-75
2022/06/06 05:17:28;;;;;;;5.82;1.60;;;;;;;;;;6324729;28;20048;-74
2022/06/06 05:20:43;;;;;;;4.80;1.40;;;;;;;;;;6325405;28;20086;-75
2022/06/06 05:24:02;;;;;;;3.35;1.27;;;;;;;;;;6326200;28;20335;-74
2022/06/06 05:27:13;;;;;;;2.30;1.30;;;;;;;;;;6325958;28;20354;-74
2022/06/06 05:30:18;;;;;;;4.35;1.85;;;;;;;;;;6326033;28;20235;-75
2022/06/06 05:33:24;;;;;;;6.18;1.90;;;;;;;;;;6327994;28;20056;-75
2022/06/06 05:36:42;;;;;;;2.47;1.80;;;;;;;;;;6318455;28;20044;-75
2022/06/06 05:39:57;;;;;;;5.40;1.92;;;;;;;;;;6324800;28;20052;-74
2022/06/06 05:43:12;;;;;;;3.63;1.80;;;;;;;;;;6322941;28;20044;-74
2022/06/06 05:46:22;;;;;;;4.07;1.33;;;;;;;;;;6322882;28;20209;-74
2022/06/06 05:49:45;;;;;;;3.42;1.65;;;;;;;;;;6322187;28;20138;-72
2022/06/06 05:52:59;;;;;;;7.80;1.45;;;;;;;;;;6327581;28;20066;-75
2022/06/06 05:56:30;;;;;;;3.80;1.38;;;;;;;;;;6325012;28;20117;-75
2022/06/06 05:59:46;;;;;;;4.30;1.20;;;;;;;;;;6324553;28;20774;-76
2022/06/06 06:03:12;;;;;;;2.70;1.10;;;;;;;;;;6324773;28;20044;-75
2022/06/06 06:06:19;;;;;;;1.80;1.05;;;;;;;;;;6323864;28;20113;-75
2022/06/06 06:09:55;;;;;;;3.58;1.48;;;;;;;;;;6322763;28;20044;-75
2022/06/06 06:13:22;;;;;;;4.55;1.27;;;;;;;;;;6317164;28;20097;-75
2022/06/06 06:16:26;;;;;;;13.25;1.80;;;;;;;;;;6313127;28;20092;-74
2022/06/06 06:19:35;;;;;;;4.60;1.20;;;;;;;;;;6311463;28;20310;-75
2022/06/06 06:22:40;;;;;;;4.82;1.15;;;;;;;;;;6306445;28;20062;-76
2022/06/06 06:25:42;;;;;;;3.42;1.10;;;;;;;;;;6308529;28;20098;-76
2022/06/06 06:28:46;;;;;;;2.90;0.90;;;;;;;;;;6312244;28;20036;-76
2022/06/06 06:32:12;;;;;;;6.57;1.10;;;;;;;;;;6318598;28;20078;-76
2022/06/06 06:35:17;;;;;;;5.13;1.33;;;;;;;;;;6324583;28;20051;-76
2022/06/06 06:38:34;;;;;;;5.40;1.85;;;;;;;;;;6325306;28;20104;-77
2022/06/06 06:41:44;;;;;;;7.10;1.20;;;;;;;;;;6324855;28;20056;-75
2022/06/06 06:44:52;;;;;;;5.75;2.13;;;;;;;;;;6324070;28;20040;-76
2022/06/06 06:47:59;;;;;;;4.13;1.35;;;;;;;;;;6325398;28;20119;-77
2022/06/06 06:51:05;;;;;;;5.53;1.80;;;;;;;;;;6322855;28;20039;-76
2022/06/06 06:54:15;;;;;;;3.97;1.27;;;;;;;;;;6321945;28;20054;-76
2022/06/06 06:57:26;;;;;;;4.82;1.65;;;;;;;;;;6323755;28;20058;-76
2022/06/06 07:00:36;;;;;;;4.72;1.60;;;;;;;;;;6324852;28;20051;-76
2022/06/06 07:10:38;;;;;;;8.48;1.70;;;;;;;;;;6244718;28;20308;-76
2022/06/06 07:13:49;;;;;;;4.38;1.35;;;;;;;;;;6249504;28;20079;-76
2022/06/06 07:16:57;;;;;;;5.75;1.30;;;;;;;;;;6254915;28;20045;-76
2022/06/06 07:20:05;;;;;;;4.57;1.48;;;;;;;;;;6250843;28;20053;-76
2022/06/06 07:23:11;;;;;;;3.90;1.33;;;;;;;;;;6252637;28;20057;-76
2022/06/06 07:26:13;;;;;;;5.03;1.77;;;;;;;;;;6249728;28;20045;-76
2022/06/06 07:29:16;;;;;;;3.97;1.63;;;;;;;;;;6251127;28;20057;-76
2022/06/06 07:32:23;;;;;;;;;;;;;;;;;;6250524;28;20052;-76
2022/06/06 07:35:34;;;;;;;5.80;1.77;;;;;;;;;;6251621;28;19916;-75
2022/06/06 07:38:45;;;;;;;2.75;1.70;;;;;;;;;;6252548;28;20041;-75
2022/06/06 07:41:57;;;;;;;4.90;1.80;;;;;;;;;;6253025;28;20045;-76
2022/06/06 07:45:10;;;;;;;5.27;1.53;;;;;;;;;;6250957;28;20061;-75
2022/06/06 07:48:23;;;;;;;9.10;1.70;;;;;;;;;;6322792;28;20044;-75
2022/06/06 07:51:31;;;;;;;3.90;2.35;;;;;;;;;;6328847;27;20247;-76
2022/06/06 07:54:44;;;;;;;4.35;1.90;;;;;;;;;;6328928;27;20567;-75
2022/06/06 07:57:54;;;;;;;7.38;2.03;;;;;;;;;;6330954;28;20165;-76
2022/06/06 08:01:02;;;;;;;3.65;2.05;;;;;;;;;;6328975;28;20101;-76
2022/06/06 08:04:14;;;;;;;4.00;1.85;;;;;;;;;;6329760;27;20048;-76
2022/06/06 08:07:22;;;;;;;7.53;3.20;;;;;;;;;;6327290;28;20055;-75
2022/06/06 08:10:48;;;;;;;7.00;2.50;;;;;;;;;;6325551;28;20044;-77
2022/06/06 08:13:56;;;;;;;6.53;2.88;;;;;;;;;;6322335;28;20056;-76
2022/06/06 08:17:02;;;;;;;4.22;2.72;;;;;;;;;;6329212;27;20052;-77
2022/06/06 08:20:15;;;;;;;8.38;2.63;;;;;;;;;;6326747;28;20089;-77
2022/06/06 08:23:18;;;;;;;8.48;2.97;;;;;;;;;;6328617;28;20252;-75
2022/06/06 08:26:20;;;;;;;4.15;2.63;;;;;;;;;;6326229;27;20051;-74
2022/06/06 08:29:22;;;;;;;6.57;3.28;;;;;;;;;;6330133;27;20115;-75
2022/06/06 08:32:25;;;;;;;7.03;2.50;;;;;;;;;;6326125;28;20052;-76
2022/06/06 08:35:29;;;;;;;;;;;;;;;;;;6330532;28;20066;-75
2022/06/06 08:38:39;;;;;;;7.22;2.35;;;;;;;;;;6326525;27;19924;-75
2022/06/06 08:42:05;;;;;;;3.58;1.98;;;;;;;;;;6332507;27;20051;-76
2022/06/06 08:45:15;;;;;;;3.20;2.22;;;;;;;;;;6328931;28;20213;-76
2022/06/06 08:48:31;;;;;;;4.95;2.72;;;;;;;;;;6321833;28;20055;-75
2022/06/06 08:51:49;;;;;;;5.45;2.38;;;;;;;;;;6326768;28;20091;-75
2022/06/06 08:55:19;;;;;;;7.35;3.15;;;;;;;;;;6326524;27;20052;-75
2022/06/06 08:58:42;;;;;;;6.20;2.80;;;;;;;;;;6324043;28;20044;-76
2022/06/06 09:02:10;;;;;;;3.33;2.22;;;;;;;;;;6327606;27;20165;-76
2022/06/06 09:05:39;;;;;;;3.53;2.00;;;;;;;;;;6325030;27;20067;-75
2022/06/06 09:09:10;;;;;;;8.27;2.25;;;;;;;;;;6324708;27;20056;-75
2022/06/06 09:13:02;;;;;;;6.30;2.30;;;;;;;;;;6328311;28;20051;-77
2022/06/06 09:16:20;;;;;;;8.55;2.72;;;;;;;;;;6324098;28;20056;-76
2022/06/06 09:19:51;;;;;;;4.30;2.00;;;;;;;;;;6324009;28;20061;-76
2022/06/06 09:23:17;;;;;;;7.93;2.42;;;;;;;;;;6325817;27;20063;-76
2022/06/06 09:26:26;;;;;;;6.15;2.15;;;;;;;;;;6326699;27;20048;-76
2022/06/06 09:29:57;;;;;;;10.30;2.33;;;;;;;;;;6325577;27;20040;-76
2022/06/06 09:33:46;;;;;;;7.25;2.00;;;;;;;;;;6303725;28;20040;-76
2022/06/06 09:36:58;;;;;;;6.30;2.75;;;;;;;;;;6299665;28;20040;-76
2022/06/06 09:40:14;;;;;;;5.72;2.38;;;;;;;;;;6300805;28;20055;-76
2022/06/06 09:43:37;;;;;;;4.82;1.88;;;;;;;;;;6303141;28;20231;-76
2022/06/06 09:47:08;;;;;;;3.45;2.17;;;;;;;;;;6315204;28;20049;-75
2022/06/06 09:50:39;;;;;;;5.65;1.85;;;;;;;;;;6298494;28;20044;-76
2022/06/06 10:02:12;;;;;;;6.13;1.67;;;;;;;;;;6300131;28;20040;-76
2022/06/06 10:05:48;;;;;;;6.00;1.65;;;;;;;;;;6299420;28;20119;-75
2022/06/06 10:09:38;;;;;;;7.15;2.90;;;;;;;;;;6204031;28;20054;-76
2022/06/06 10:12:59;;;;;;;6.80;2.67;;;;;;;;;;6219149;28;20081;-76
2022/06/06 10:16:13;;;;;;;4.20;2.17;;;;;;;;;;6217927;28;20288;-76
2022/06/06 10:19:36;;;;;;;5.65;2.58;;;;;;;;;;6221867;28;20048;-77
2022/06/06 10:23:02;;;;;;;4.10;2.13;;;;;;;;;;6221925;28;20137;-77
2022/06/06 10:26:40;;;;;;;5.35;1.88;;;;;;;;;;6224134;28;20045;-75
2022/06/06 10:30:11;;;;;;;3.95;2.20;;;;;;;;;;6221988;28;20054;-76
2022/06/06 10:33:44;;;;;;;4.18;2.00;;;;;;;;;;6221954;28;20068;-76
2022/06/06 10:36:59;;;;;;;4.68;2.20;;;;;;;;;;6222174;28;20104;-76
2022/06/06 10:40:16;;;;;;;5.68;2.38;;;;;;;;;;6224799;28;20068;-75
2022/06/06 10:43:40;;;;;;;6.78;2.85;;;;;;;;;;6242552;28;20052;-76
2022/06/06 10:46:57;;;;;;;5.35;2.15;;;;;;;;;;6323369;28;20062;-76
2022/06/06 10:50:03;;;;;;;6.35;2.25;;;;;;;;;;6323825;28;20101;-76
2022/06/06 10:53:25;;;;;;;5.80;2.25;;;;;;;;;;6324890;28;20117;-76
2022/06/06 10:56:50;;;;;;;5.00;2.30;;;;;;;;;;6323331;28;20047;-76
2022/06/06 11:00:14;;;;;;;4.10;2.30;;;;;;;;;;6322353;28;20043;-76
2022/06/06 11:03:30;;;;;;;6.93;2.38;;;;;;;;;;6321644;28;20039;-76
2022/06/06 11:07:02;;;;;;;6.40;2.28;;;;;;;;;;6322535;28;20048;-76
2022/06/06 11:10:39;;;;;;;6.75;2.47;;;;;;;;;;6321517;28;20052;-76
2022/06/06 11:13:47;;;;;;;8.85;2.50;;;;;;;;;;6322794;27;20044;-76
2022/06/06 11:17:28;;;;;;;10.13;2.92;;;;;;;;;;6323831;28;20102;-75
2022/06/06 11:21:11;;;;;;;10.52;2.75;;;;;;;;;;6320426;28;20093;-76
2022/06/06 11:24:19;;;;;;;6.97;2.75;;;;;;;;;;6323470;28;20045;-76
2022/06/06 11:27:54;;;;;;;7.00;2.35;;;;;;;;;;6323017;28;20081;-76
2022/06/06 11:31:13;;;;;;;7.47;2.30;;;;;;;;;;6324726;28;20046;-76
2022/06/06 11:34:38;;;;;;;3.58;2.08;;;;;;;;;;6324103;28;20060;-76
2022/06/06 11:38:13;;;;;;;6.07;3.55;;;;;;;;;;6324880;28;20312;-76
2022/06/06 11:41:31;;;;;;;3.42;2.10;;;;;;;;;;6312597;28;20105;-76
2022/06/06 11:44:51;;;;;;;12.05;2.70;;;;;;;;;;6311847;28;20047;-77
2022/06/06 11:47:55;;;;;;;7.53;3.30;;;;;;;;;;6314917;28;20346;-75
2022/06/06 11:51:36;;;;;;;8.60;2.20;;;;;;;;;;6318065;28;20523;-75
2022/06/06 11:55:00;;;;;;;6.40;2.55;;;;;;;;;;6261665;28;20040;-76
2022/06/06 11:58:51;;;;;;;7.72;5.00;;;;;;;;;;6314946;28;20053;-75
2022/06/06 12:02:26;;;;;;;9.07;5.07;;;;;;;;;;6321346;28;20045;-76
2022/06/06 12:05:52;;;;;;;8.30;5.22;;;;;;;;;;6326577;28;20052;-75
2022/06/06 12:09:12;;;;;;;9.35;4.88;;;;;;;;;;6290251;28;20040;-76
2022/06/06 12:12:37;;;;;;;7.32;4.57;;;;;;;;;;6301611;27;20044;-76
2022/06/06 12:15:54;;;;;;;5.07;3.80;;;;;;;;;;6318996;28;20105;-75
2022/06/06 12:19:19;;;;;;;3.53;3.05;;;;;;;;;;6299190;28;20048;-76
2022/06/06 12:22:50;;;;;;;6.68;3.22;;;;;;;;;;6299433;28;20115;-76
2022/06/06 12:26:03;;;;;;;5.53;3.33;;;;;;;;;;6299993;28;20256;-76
2022/06/06 12:29:27;;;;;;;3.85;2.10;;;;;;;;;;6301879;28;20058;-76
2022/06/06 12:32:42;;;;;;;5.38;2.63;;;;;;;;;;6302154;28;20048;-76
2022/06/06 12:35:51;;;;;;;3.67;2.17;;;;;;;;;;6299626;28;20208;-76
2022/06/06 12:38:59;;;;;;;5.82;2.40;;;;;;;;;;6302208;28;20074;-76
2022/06/06 12:42:09;;;;;;;3.63;1.80;;;;;;;;;;6302212;27;20069;-75
2022/06/06 12:45:29;;;;;;;3.97;2.22;;;;;;;;;;6297534;28;20040;-76
2022/06/06 12:48:59;;;;;;;4.32;3.50;;;;;;;;;;6302367;28;20331;-76
2022/06/06 12:52:23;;;;;;;7.10;2.97;;;;;;;;;;6303723;28;20057;-76
2022/06/06 12:55:33;;;;;;;5.32;3.50;;;;;;;;;;6301446;28;20072;-76
2022/06/06 12:58:40;;;;;;;6.75;3.83;;;;;;;;;;6296715;28;20053;-76
2022/06/06 13:01:46;;;;;;;6.80;3.50;;;;;;;;;;6302902;28;20254;-76
2022/06/06 13:05:12;;;;;;;10.88;3.00;;;;;;;;;;6303572;28;20048;-76
2022/06/06 13:08:26;;;;;;;3.28;2.35;;;;;;;;;;6300669;28;20114;-76
2022/06/06 13:11:41;;;;;;;6.45;2.50;;;;;;;;;;6298673;28;20199;-76
2022/06/06 13:15:11;;;;;;;2.90;1.80;;;;;;;;;;6297143;28;20222;-76
2022/06/06 13:18:25;;;;;;;5.07;1.50;;;;;;;;;;6301030;28;20044;-76
2022/06/06 13:21:35;;;;;;;4.50;2.40;;;;;;;;;;6301675;28;20056;-76
2022/06/06 13:24:58;;;;;;;4.38;2.40;;;;;;;;;;6298502;28;20231;-76
2022/06/06 13:28:02;;;;;;;6.32;1.92;;;;;;;;;;6296147;28;20213;-76
2022/06/06 13:31:21;;;;;;;4.28;1.52;;;;;;;;;;6298286;28;20060;-76
2022/06/06 13:34:32;;;;;;;4.25;2.00;;;;;;;;;;6301245;28;20090;-76
2022/06/06 13:37:43;;;;;;;3.47;1.38;;;;;;;;;;6296656;28;20060;-76
2022/06/06 13:40:49;;;;;;;2.33;1.67;;;;;;;;;;6299852;28;20102;-75
2022/06/06 13:43:57;;;;;;;5.68;1.75;;;;;;;;;;6297255;28;20080;-75
2022/06/06 13:47:07;;;;;;;5.18;1.50;;;;;;;;;;6297034;28;20244;-75
2022/06/06 13:50:15;;;;;;;3.30;1.67;;;;;;;;;;6297035;28;20040;-75
2022/06/06 13:53:36;;;;;;;3.30;1.70;;;;;;;;;;6298845;28;20044;-75
2022/06/06 13:57:07;;;;;;;6.27;1.53;;;;;;;;;;6298286;28;20052;-76
2022/06/06 14:00:16;;;;;;;;;;;;;;;;;;6295955;28;20102;-75
2022/06/06 14:03:41;;;;;;;4.63;1.85;;;;;;;;;;6300439;28;20150;-76
2022/06/06 14:06:57;;;;;;;2.22;1.55;;;;;;;;;;6299261;28;20067;-75
2022/06/06 14:10:00;;;;;;;5.30;1.45;;;;;;;;;;6298701;28;20098;-75
2022/06/06 14:13:08;;;;;;;3.35;1.48;;;;;;;;;;6297411;28;20057;-76
2022/06/06 14:16:19;;;;;;;2.90;1.27;;;;;;;;;;6300592;28;20125;-75
2022/06/06 14:19:22;;;;;;;3.38;1.38;;;;;;;;;;6297396;28;20232;-76
2022/06/06 14:22:29;;;;;;;3.95;1.67;;;;;;;;;;6298631;28;20044;-76
2022/06/06 14:25:44;;;;;;;5.97;2.30;;;;;;;;;;6299484;28;20064;-76
2022/06/06 14:29:04;;;;;;;3.38;1.80;;;;;;;;;;6296515;28;20063;-76
2022/06/06 14:32:19;;;;;;;4.20;2.13;;;;;;;;;;6297741;28;20107;-76
2022/06/06 14:35:29;;;;;;;5.10;1.90;;;;;;;;;;6297210;28;20066;-75
2022/06/06 14:38:33;;;;;;;3.95;2.15;;;;;;;;;;6296858;28;20041;-77
2022/06/06 14:41:40;;;;;;;3.42;2.13;;;;;;;;;;6296224;28;20282;-76
2022/06/06 14:44:46;;;;;;;4.78;1.80;;;;;;;;;;6297797;28;20114;-76
2022/06/06 14:47:50;;;;;;;7.57;2.08;;;;;;;;;;6295734;28;20056;-76
2022/06/06 14:50:54;;;;;;;5.32;2.03;;;;;;;;;;6295377;28;20044;-76
2022/06/06 14:54:02;;;;;;;3.28;1.88;;;;;;;;;;6293214;28;20045;-75
2022/06/06 14:57:05;;;;;;;6.20;2.50;;;;;;;;;;6294929;28;20041;-76
2022/06/06 15:00:14;;;;;;;4.20;2.17;;;;;;;;;;6293738;28;20102;-75
2022/06/06 15:03:16;;;;;;;3.13;1.77;;;;;;;;;;6299267;28;20098;-75
2022/06/06 15:06:20;;;;;;;9.45;2.10;;;;;;;;;;6294595;28;20048;-76
2022/06/06 15:09:31;;;;;;;8.15;2.38;;;;;;;;;;6298470;28;20135;-76
2022/06/06 15:12:32;;;;;;;5.05;2.17;;;;;;;;;;6294761;28;20098;-75
2022/06/06 15:15:36;;;;;;;3.73;2.00;;;;;;;;;;6297612;28;20044;-75
2022/06/06 15:18:42;;;;;;;9.52;2.60;;;;;;;;;;6293453;28;20048;-75
2022/06/06 15:21:44;;;;;;;6.43;2.85;;;;;;;;;;6295035;28;20293;-76
2022/06/06 15:24:46;;;;;;;3.67;1.90;;;;;;;;;;6296699;28;20105;-75
2022/06/06 15:28:08;;;;;;;9.07;2.25;;;;;;;;;;6297702;28;20074;-75
2022/06/06 15:31:21;;;;;;;7.37;2.33;;;;;;;;;;6298703;28;20048;-75
2022/06/06 15:34:46;;;;;;;3.45;2.40;;;;;;;;;;6297861;28;20056;-74
2022/06/06 15:37:53;;;;;;;4.60;2.13;;;;;;;;;;6300170;28;20076;-76
2022/06/06 15:41:00;;;;;;;3.95;1.88;;;;;;;;;;6310924;28;20052;-75
2022/06/06 15:44:07;;;;;;;4.22;2.47;;;;;;;;;;6329311;27;20062;-75
2022/06/06 15:47:16;;;;;;;3.55;2.28;;;;;;;;;;6323052;27;20112;-74
2022/06/06 15:50:30;;;;;;;6.95;2.95;;;;;;;;;;6327798;27;20062;-75
2022/06/06 15:54:00;;;;;;;9.95;3.13;;;;;;;;;;6328294;28;20232;-76
2022/06/06 15:57:09;;;;;;;3.70;2.38;;;;;;;;;;6329311;27;20111;-76
2022/06/06 16:00:21;;;;;;;5.25;2.75;;;;;;;;;;6325112;28;20056;-76
2022/06/06 16:03:39;;;;;;;7.82;2.40;;;;;;;;;;6329389;28;20123;-77
2022/06/06 16:06:43;;;;;;;5.90;2.35;;;;;;;;;;6322354;28;20048;-76
2022/06/06 16:09:50;;;;;;;4.82;2.47;;;;;;;;;;6330012;28;20097;-76
2022/06/06 16:13:03;;;;;;;6.18;3.28;;;;;;;;;;6327270;28;20045;-76
2022/06/06 16:16:20;;;;;;;7.53;3.17;;;;;;;;;;6322153;27;20040;-76
2022/06/06 16:19:30;;;;;;;8.88;3.65;;;;;;;;;;6323803;27;20048;-75
2022/06/06 16:22:35;;;;;;;9.10;3.80;;;;;;;;;;6324685;28;20048;-75
2022/06/06 16:25:46;;;;;;;11.63;3.70;;;;;;;;;;6325989;28;20240;-75
2022/06/06 16:28:50;;;;;;;7.78;4.07;;;;;;;;;;6324765;28;20044;-75
2022/06/06 16:32:27;;;;;;;5.30;4.15;;;;;;;;;;6326856;28;20051;-75
2022/06/06 16:35:34;;;;;;;7.70;3.38;;;;;;;;;;6321229;28;20060;-75
2022/06/06 16:38:38;;;;;;;6.43;3.95;;;;;;;;;;6326082;28;20231;-75
2022/06/06 16:48:42;;;;;;;;;;;;;;;;;;6323747;28;20043;-76
2022/06/06 16:51:52;;;;;;;10.70;4.07;;;;;;;;;;6322017;28;20261;-76
2022/06/06 16:54:58;;;;;;;9.48;3.80;;;;;;;;;;6314485;28;20048;-76
2022/06/06 16:58:05;;;;;;;8.30;3.75;;;;;;;;;;6315648;28;20052;-76
2022/06/06 17:01:30;;;;;;;8.93;3.53;;;;;;;;;;6323182;28;20111;-76
2022/06/06 17:04:43;;;;;;;8.55;3.63;;;;;;;;;;6321305;28;20052;-75
2022/06/06 17:07:59;;;;;;;11.43;4.40;;;;;;;;;;6323078;28;20387;-76
2022/06/06 17:11:16;;;;;;;10.93;4.07;;;;;;;;;;6323096;28;20327;-76
2022/06/06 17:14:21;;;;;;;10.02;3.90;;;;;;;;;;6322938;28;20056;-76
2022/06/06 17:17:25;;;;;;;7.53;3.67;;;;;;;;;;6322646;28;20066;-75
2022/06/06 17:20:29;;;;;;;7.10;3.25;;;;;;;;;;6322668;28;20113;-75
2022/06/06 17:23:33;;;;;;;14.27;3.83;;;;;;;;;;6320349;28;20075;-76
2022/06/06 17:26:39;;;;;;;7.20;3.30;;;;;;;;;;6318008;28;20067;-74
2022/06/06 17:29:55;;;;;;;11.27;3.97;;;;;;;;;;6322920;28;20066;-73
2022/06/06 17:33:01;;;;;;;9.93;3.42;;;;;;;;;;6317378;28;20308;-72
2022/06/06 17:36:22;;;;;;;8.82;3.58;;;;;;;;;;6321637;28;20178;-70
2022/06/06 17:39:37;;;;;;;9.48;3.45;;;;;;;;;;6316270;28;20347;-71
2022/06/06 17:42:49;;;;;;;11.57;4.80;;;;;;;;;;6320505;28;20056;-74
2022/06/06 17:45:58;;;;;;;7.10;2.78;;;;;;;;;;6319915;28;20047;-73
2022/06/06 17:49:16;;;;;;;9.48;3.10;;;;;;;;;;6319758;28;20071;-74
2022/06/06 17:52:54;;;;;;;6.18;3.47;;;;;;;;;;6316517;28;20048;-74
2022/06/06 17:56:04;;;;;;;8.75;3.70;;;;;;;;;;6316041;28;20044;-73
2022/06/06 17:59:16;;;;;;;8.00;3.30;;;;;;;;;;6321627;28;20327;-72
2022/06/06 18:02:44;;;;;;;10.65;4.40;;;;;;;;;;6319914;28;20100;-72
2022/06/06 18:05:56;;;;;;;7.80;3.50;;;;;;;;;;6320577;28;20052;-74
2022/06/06 18:09:51;;;;;;;8.45;3.47;;;;;;;;;;6322040;28;20123;-73
2022/06/06 18:13:14;;;;;;;17.92;4.63;;;;;;;;;;6268966;28;20283;-73
2022/06/06 18:16:19;;;;;;;9.07;3.50;;;;;;;;;;6269847;28;20052;-72
2022/06/06 18:19:25;;;;;;;9.82;4.35;;;;;;;;;;6270856;28;20045;-74
2022/06/06 18:22:30;;;;;;;8.82;3.72;;;;;;;;;;6266190;28;20340;-74
2022/06/06 18:25:35;;;;;;;5.82;3.25;;;;;;;;;;6264164;28;20324;-74
2022/06/06 18:28:45;;;;;;;8.48;3.47;;;;;;;;;;6269595;28;20124;-74
2022/06/06 18:31:50;;;;;;;10.27;3.20;;;;;;;;;;6266409;28;20195;-74
2022/06/06 18:34:56;;;;;;;9.65;3.20;;;;;;;;;;6270443;28;20331;-74
2022/06/06 18:38:00;;;;;;;12.20;3.13;;;;;;;;;;6270312;28;20061;-74
2022/06/06 18:41:04;;;;;;;9.18;3.50;;;;;;;;;;6268419;28;20045;-75
2022/06/06 18:44:17;;;;;;;9.20;3.47;;;;;;;;;;6304030;28;20344;-75
2022/06/06 18:47:34;;;;;;;7.15;3.42;;;;;;;;;;6322225;28;20044;-74
2022/06/06 18:50:38;;;;;;;6.40;2.88;;;;;;;;;;6319117;28;20269;-74
2022/06/06 18:53:43;;;;;;;7.38;3.25;;;;;;;;;;6323152;28;20044;-75
2022/06/06 18:56:51;;;;;;;10.30;2.75;;;;;;;;;;6317607;28;20040;-76
2022/06/06 18:59:57;;;;;;;11.23;4.25;;;;;;;;;;6322981;28;20257;-76
2022/06/06 19:03:01;;;;;;;9.43;4.28;;;;;;;;;;6320208;28;20090;-72
2022/06/06 19:06:11;;;;;;;8.45;3.40;;;;;;;;;;6320423;28;20056;-70
2022/06/06 19:09:25;;;;;;;9.15;3.70;;;;;;;;;;6318437;28;20216;-70
2022/06/06 19:12:28;;;;;;;7.32;3.75;;;;;;;;;;6321409;28;20054;-71
2022/06/06 19:15:35;;;;;;;7.45;3.83;;;;;;;;;;6324770;27;20044;-71
2022/06/06 19:18:37;;;;;;;9.75;3.42;;;;;;;;;;6323421;28;20067;-71
2022/06/06 19:21:44;;;;;;;9.73;4.15;;;;;;;;;;6328837;28;20716;-69
2022/06/06 19:24:47;;;;;;;8.95;4.43;;;;;;;;;;6323093;28;20036;-70
2022/06/06 19:27:56;;;;;;;9.35;3.50;;;;;;;;;;6325489;28;20051;-69
2022/06/06 19:31:32;;;;;;;9.75;3.97;;;;;;;;;;6323036;28;20049;-71
2022/06/06 19:34:35;;;;;;;10.98;4.38;;;;;;;;;;6326653;28;20121;-71
2022/06/06 19:37:40;;;;;;;8.25;4.70;;;;;;;;;;6322998;28;20051;-70
2022/06/06 19:40:42;;;;;;;8.88;4.40;;;;;;;;;;6317844;28;20056;-71
2022/06/06 19:43:45;;;;;;;14.27;5.63;;;;;;;;;;6325096;27;20113;-70